CMA CGM Tosca — FMEL — position and weather

sailwx.info

Track history (hours):
 
Tides and Currents Weather Stations Pressure Air Temp Water Temp Dewpoint Dewpoint Depression Visibility Wind Speed Wind Dir Waves Ship Positions

CMA CGM Tosca

Last reported at 2017-Nov-19 09:22 UTC. Time now 2017-Nov-23 01:38 UTC.
Position N 37°51' W 000°14'.

Length 334 m; draft 11.1 m.

Type: Cargo ship. MMSI: 228335900.

Date/timePositionNaut miles runAvg speedWind from/ knotsBaromVisibWave heightAir tempDewpointWater temp
2017-Nov-19 09:22N 37°51' W 000°14'718.3
2017-Nov-19 09:00N 37°46' W 000°19'918.3
2017-Nov-19 08:31N 37°38' W 000°26'918.2
2017-Nov-19 08:00N 37°31' W 000°33'1020.5
2017-Nov-19 07:30N 37°24' W 000°42'918.4
2017-Nov-19 07:00N 37°18' W 000°51'917.7
2017-Nov-19 06:30N 37°13' W 000°59'21917.4
2017-Nov-18 17:56N 35°60' W 005°17'818.0
2017-Nov-18 17:31N 35°58' W 005°26'6 0.2
2017-Nov-17 04:57N 35°57' W 005°33'2 5.3
2017-Nov-17 04:31N 35°58' W 005°31'611.9
2017-Nov-17 04:01N 36°00' W 005°24'612.6
2017-Nov-17 03:31N 36°01' W 005°16'612.6
2017-Nov-17 03:00N 36°02' W 005°08'20912.2
2017-Nov-16 09:54N 37°13' W 001°04'712.7
2017-Nov-16 09:22N 37°18' W 000°57'512.6
2017-Nov-16 08:57N 37°21' W 000°52'612.6
2017-Nov-16 08:31N 37°25' W 000°47'812.7
2017-Nov-16 07:55N 37°30' W 000°40'512.4
2017-Nov-16 07:30N 37°33' W 000°35'241 5.7
2017-Nov-14 13:34N 41°02' E 001°58'114.2
2017-Nov-14 13:29N 41°03' E 001°59'714.9
2017-Nov-14 13:01N 41°09' E 002°05'1013.9
2017-Nov-14 12:18N 41°18' E 002°10'242 6.6
2017-Nov-12 23:42N 43°04' E 007°04'418.5
2017-Nov-12 23:30N 43°06' E 007°08'1018.8
2017-Nov-12 22:58N 43°12' E 007°19'1019.0
2017-Nov-12 22:27N 43°18' E 007°30'3718.2
2017-Nov-12 20:26N 43°41' E 008°10'819.5
2017-Nov-12 20:00N 43°46' E 008°18'1122.0
2017-Nov-12 19:30N 43°55' E 008°28'1121.9
2017-Nov-12 19:00N 44°03' E 008°38'1121.4
2017-Nov-12 18:30N 44°11' E 008°48'918.6
2017-Nov-12 18:00N 44°19' E 008°56'510.1
2017-Nov-12 17:30N 44°24' E 008°56'1 0.1
2017-Nov-12 04:43N 44°24' E 008°55'0 1.6
2017-Nov-12 04:30N 44°24' E 008°55'2 3.8
2017-Nov-12 04:00N 44°23' E 008°57'5 9.1
2017-Nov-12 03:31N 44°19' E 008°60'5 9.6
2017-Nov-12 03:01N 44°14' E 009°02'5 9.1
2017-Nov-12 02:31N 44°12' E 009°08'5 9.1
2017-Nov-12 02:00N 44°10' E 009°14'5 9.4
2017-Nov-12 01:30N 44°08' E 009°19'5 9.5
2017-Nov-12 01:01N 44°05' E 009°25'5 9.7
2017-Nov-12 00:31N 44°03' E 009°31'5 9.7
2017-Nov-11 23:59N 44°01' E 009°37'5 9.6
2017-Nov-11 23:31N 44°00' E 009°44'5 9.5
2017-Nov-11 23:01N 43°60' E 009°50'4 8.3
2017-Nov-11 22:31N 44°04' E 009°51'2 0.2
2017-Nov-11 11:21N 44°06' E 009°51'1 2.8
2017-Nov-11 11:00N 44°05' E 009°51'2 4.5
2017-Nov-11 10:28N 44°03' E 009°52'4 8.0
2017-Nov-11 09:59N 44°01' E 009°56'611.5
2017-Nov-11 09:26N 43°54' E 009°54'612.8
2017-Nov-11 08:59N 43°49' E 009°51'816.9
2017-Nov-11 08:31N 43°41' E 009°48'816.1
2017-Nov-11 08:01N 43°34' E 009°45'816.2
2017-Nov-11 07:31N 43°26' E 009°44'816.1
2017-Nov-11 07:01N 43°18' E 009°42'1016.5
2017-Nov-11 06:25N 43°08' E 009°40'2716.3
2017-Nov-11 04:46N 42°42' E 009°47'616.4
2017-Nov-11 04:24N 42°36' E 009°50'38816.0
2017-Nov-10 04:12N 36°40' E 013°09'316.0
2017-Nov-10 04:00N 36°37' E 013°11'816.7
2017-Nov-10 03:30N 36°30' E 013°17'1316.8
2017-Nov-10 02:42N 36°20' E 013°28'3116.8
2017-Nov-10 00:53N 35°56' E 013°52'1116.4
2017-Nov-10 00:12N 35°52' E 014°04'316.4
2017-Nov-10 00:00N 35°50' E 014°08'816.3
2017-Nov-09 23:30N 35°47' E 014°17'816.3
2017-Nov-09 23:00N 35°44' E 014°27'812.7
2017-Nov-09 22:23N 35°47' E 014°35'  
Track history (hours):
 
Tides and Currents Weather Stations Pressure Air Temp Water Temp Dewpoint Dewpoint Depression Visibility Wind Speed Wind Dir Waves Ship Positions

CMA CGM Tosca

Last reported at 2017-Nov-19 09:22 UTC. Time now 2017-Nov-23 01:38 UTC.
Position N 37°51' W 000°14'.

Length 334 m; draft 11.1 m.

Type: Cargo ship. MMSI: 228335900.

Date/timePositionNaut miles runAvg speedWind from/ knotsBaromVisibWave heightAir tempDewpointWater temp
2017-Nov-19 09:22N 37°51' W 000°14'718.3
2017-Nov-19 09:00N 37°46' W 000°19'918.3
2017-Nov-19 08:31N 37°38' W 000°26'918.2
2017-Nov-19 08:00N 37°31' W 000°33'1020.5
2017-Nov-19 07:30N 37°24' W 000°42'918.4
2017-Nov-19 07:00N 37°18' W 000°51'917.7
2017-Nov-19 06:30N 37°13' W 000°59'21917.4
2017-Nov-18 17:56N 35°60' W 005°17'818.0
2017-Nov-18 17:31N 35°58' W 005°26'6 0.2
2017-Nov-17 04:57N 35°57' W 005°33'2 5.3
2017-Nov-17 04:31N 35°58' W 005°31'611.9
2017-Nov-17 04:01N 36°00' W 005°24'612.6
2017-Nov-17 03:31N 36°01' W 005°16'612.6
2017-Nov-17 03:00N 36°02' W 005°08'20912.2
2017-Nov-16 09:54N 37°13' W 001°04'712.7
2017-Nov-16 09:22N 37°18' W 000°57'512.6
2017-Nov-16 08:57N 37°21' W 000°52'612.6
2017-Nov-16 08:31N 37°25' W 000°47'812.7
2017-Nov-16 07:55N 37°30' W 000°40'512.4
2017-Nov-16 07:30N 37°33' W 000°35'241 5.7
2017-Nov-14 13:34N 41°02' E 001°58'114.2
2017-Nov-14 13:29N 41°03' E 001°59'714.9
2017-Nov-14 13:01N 41°09' E 002°05'1013.9
2017-Nov-14 12:18N 41°18' E 002°10'242 6.6
2017-Nov-12 23:42N 43°04' E 007°04'418.5
2017-Nov-12 23:30N 43°06' E 007°08'1018.8
2017-Nov-12 22:58N 43°12' E 007°19'1019.0
2017-Nov-12 22:27N 43°18' E 007°30'3718.2
2017-Nov-12 20:26N 43°41' E 008°10'819.5
2017-Nov-12 20:00N 43°46' E 008°18'1122.0
2017-Nov-12 19:30N 43°55' E 008°28'1121.9
2017-Nov-12 19:00N 44°03' E 008°38'1121.4
2017-Nov-12 18:30N 44°11' E 008°48'918.6
2017-Nov-12 18:00N 44°19' E 008°56'510.1
2017-Nov-12 17:30N 44°24' E 008°56'1 0.1
2017-Nov-12 04:43N 44°24' E 008°55'0 1.6
2017-Nov-12 04:30N 44°24' E 008°55'2 3.8
2017-Nov-12 04:00N 44°23' E 008°57'5 9.1
2017-Nov-12 03:31N 44°19' E 008°60'5 9.6
2017-Nov-12 03:01N 44°14' E 009°02'5 9.1
2017-Nov-12 02:31N 44°12' E 009°08'5 9.1
2017-Nov-12 02:00N 44°10' E 009°14'5 9.4
2017-Nov-12 01:30N 44°08' E 009°19'5 9.5
2017-Nov-12 01:01N 44°05' E 009°25'5 9.7
2017-Nov-12 00:31N 44°03' E 009°31'5 9.7
2017-Nov-11 23:59N 44°01' E 009°37'5 9.6
2017-Nov-11 23:31N 44°00' E 009°44'5 9.5
2017-Nov-11 23:01N 43°60' E 009°50'4 8.3
2017-Nov-11 22:31N 44°04' E 009°51'2 0.2
2017-Nov-11 11:21N 44°06' E 009°51'1 2.8
2017-Nov-11 11:00N 44°05' E 009°51'2 4.5
2017-Nov-11 10:28N 44°03' E 009°52'4 8.0
2017-Nov-11 09:59N 44°01' E 009°56'611.5
2017-Nov-11 09:26N 43°54' E 009°54'612.8
2017-Nov-11 08:59N 43°49' E 009°51'816.9
2017-Nov-11 08:31N 43°41' E 009°48'816.1
2017-Nov-11 08:01N 43°34' E 009°45'816.2
2017-Nov-11 07:31N 43°26' E 009°44'816.1
2017-Nov-11 07:01N 43°18' E 009°42'1016.5
2017-Nov-11 06:25N 43°08' E 009°40'2716.3
2017-Nov-11 04:46N 42°42' E 009°47'616.4
2017-Nov-11 04:24N 42°36' E 009°50'38816.0
2017-Nov-10 04:12N 36°40' E 013°09'316.0
2017-Nov-10 04:00N 36°37' E 013°11'816.7
2017-Nov-10 03:30N 36°30' E 013°17'1316.8
2017-Nov-10 02:42N 36°20' E 013°28'3116.8
2017-Nov-10 00:53N 35°56' E 013°52'1116.4
2017-Nov-10 00:12N 35°52' E 014°04'316.4
2017-Nov-10 00:00N 35°50' E 014°08'816.3
2017-Nov-09 23:30N 35°47' E 014°17'816.3
2017-Nov-09 23:00N 35°44' E 014°27'812.7
2017-Nov-09 22:23N 35°47' E 014°35'  

Dump ship's entire track history